Latest Weather Observations for Marble Bar

IDW60801

Issued at 7:02 pm WST Thursday 3 September 2015 (issued every 30 minutes, with the page automatically refreshed every 10 minutes)

About weather observations | Map of weather stations | Latest weather observations for WA | Other Formats
Station Details ID: 004106 Name: MARBLE BAR Lat: -21.18 Lon: 119.75 Height: 182.3 m
Data from the previous 72 hours. | See also: Recent months at Marble Bar
Date/Time
WST
Temp
°C
App
Temp
°C
Dew
Point
Rel
Hum
%
Delta-T
°C
Wind Press
QNH
hPa
Press
MSL
hPa
Rain
since 9 am
mm
Dir
 
Spd
km/h
Gust
km/h
Spd
kts
Gust
kts
03/06:30pm - - - - - - - - - - 1016.6 1015.7 -
03/03:00pm 32.2 - -3.2 10 16.4 - - - - - 1015.9 1015.0 -
03/01:30pm - - - - - - - - - - 1016.6 1015.7 -
03/11:00am - - - - - - - - - - 1018.7 1017.7 0.0
03/10:00am - - - - - - - - - - 1019.3 1018.3 -
03/08:00am 21.3 16.5 -2.5 20 10.2 ESE 13 20 7 11 1019.6 1018.7 0.0
03/07:30am 19.3 15.9 -0.7 26 8.7 SSE 7 9 4 5 1019.4 1018.4 0.0
03/07:27am 19.0 15.7 0.1 28 8.4 SSE 7 9 4 5 1019.4 1018.4 0.0
03/07:00am 14.0 12.2 1.3 42 5.5 CALM 0 0 0 0 1019.0 1018.0 0.0
03/06:30am 11.8 9.9 0.3 45 4.8 CALM 0 0 0 0 1018.9 1017.9 0.0
03/06:00am 11.0 9.0 0.1 47 4.5 CALM 0 0 0 0 1018.5 1017.5 0.0
03/05:30am 11.3 9.3 0.1 46 4.6 CALM 0 0 0 0 1018.2 1017.2 0.0
03/05:00am 12.0 10.0 0.1 44 4.9 CALM 0 0 0 0 1018.0 1017.0 0.0
03/04:30am 12.4 10.4 -0.1 42 5.2 CALM 0 2 0 1 1017.6 1016.7 0.0
03/04:00am 12.9 10.9 0.0 41 5.4 CALM 0 0 0 0 1017.6 1016.7 0.0
03/03:30am 13.5 11.5 -0.2 39 5.7 CALM 0 0 0 0 1017.8 1016.8 0.0
03/03:00am 13.8 11.8 -0.3 38 5.9 CALM 0 0 0 0 1017.6 1016.7 0.0
03/02:30am 14.2 11.8 -0.3 37 6.1 SSE 2 4 1 2 1017.5 1016.6 0.0
03/02:00am 14.5 12.0 -0.8 35 6.4 SE 2 4 1 2 1017.6 1016.7 0.0
03/01:30am 14.4 11.9 -0.8 35 6.3 SE 2 4 1 2 1017.6 1016.7 0.0
03/01:00am 14.9 12.9 -0.4 35 6.4 CALM 0 2 0 1 1017.9 1016.9 0.0
03/12:30am 15.3 12.9 -0.4 34 6.7 SSE 2 4 1 2 1018.1 1017.1 0.0
03/12:00am 15.8 13.7 -0.8 32 7.0 CALM 0 0 0 0 1018.2 1017.2 0.0
 
Date/Time
WST
Temp
°C
App
Temp
°C
Dew
Point
Rel
Hum
%
Delta-T
°C
Wind Press
QNH
hPa
Press
MSL
hPa
Rain
since 9 am
mm
Dir
 
Spd
km/h
Gust
km/h
Spd
kts
Gust
kts
02/11:30pm 17.2 14.7 -1.0 29 7.8 N 2 6 1 3 1018.3 1017.3 0.0
02/11:00pm 18.9 16.0 -1.0 26 8.6 N 4 7 2 4 1018.1 1017.1 0.0
02/10:30pm 20.4 16.5 -1.4 23 9.5 ESE 9 13 5 7 1018.0 1017.0 0.0
02/10:00pm 21.2 16.2 -1.3 22 9.9 SE 15 17 8 9 1017.9 1016.9 0.0
02/09:30pm 20.9 17.1 -1.0 23 9.6 SE 9 11 5 6 1018.0 1017.0 0.0
02/09:00pm 21.6 17.0 -1.0 22 10.0 SE 13 17 7 9 1018.0 1017.0 0.0
02/08:30pm 21.5 17.4 -0.5 23 9.8 SE 11 13 6 7 1018.0 1017.0 0.0
02/08:00pm 21.2 17.9 -0.1 24 9.6 SE 7 11 4 6 1017.8 1016.8 0.0
02/07:30pm 21.3 18.5 -0.6 23 9.8 ESE 4 7 2 4 1017.4 1016.5 0.0
02/07:00pm 23.1 19.9 -0.4 21 10.7 E 6 7 3 4 1016.8 1015.9 0.0
02/06:30pm 24.4 21.2 -0.7 19 11.4 E 6 7 3 4 1016.3 1015.4 0.0
02/06:00pm 25.9 22.4 -1.0 17 12.3 E 7 11 4 6 1016.1 1015.2 0.0
02/05:30pm 27.5 24.0 -1.4 15 13.3 NE 7 11 4 6 1016.0 1015.1 0.0
02/05:00pm 28.3 24.8 -1.7 14 13.8 ENE 7 13 4 7 1015.9 1015.0 0.0
02/04:30pm 28.7 24.7 -2.4 13 14.2 NE 9 13 5 7 1015.7 1014.8 0.0
02/04:00pm 29.1 25.1 -2.1 13 14.4 E 9 17 5 9 1015.5 1014.6 0.0
02/03:30pm 29.3 25.7 -1.9 13 14.5 ESE 7 19 4 10 1015.6 1014.7 0.0
02/03:00pm 29.0 25.0 -2.2 13 14.3 E 9 17 5 9 1015.7 1014.8 0.0
02/02:30pm 29.1 24.7 -2.1 13 14.4 E 11 28 6 15 1015.8 1014.9 0.0
02/02:00pm 28.6 23.8 -2.5 13 14.2 ESE 13 22 7 12 1016.2 1015.3 0.0
02/01:30pm 28.8 23.7 -2.3 13 14.3 ESE 15 22 8 12 1016.4 1015.5 0.0
02/01:00pm 27.9 23.0 -3.0 13 13.9 ESE 13 22 7 12 1016.8 1015.9 0.0
02/12:30pm 26.8 21.2 -2.9 14 13.3 E 17 26 9 14 1017.4 1016.5 0.0
02/12:00pm 26.8 22.0 -2.9 14 13.2 ESE 13 28 7 15 1018.0 1017.0 0.0
02/11:30am 25.7 20.5 -2.8 15 12.6 ESE 15 26 8 14 1018.4 1017.4 0.0
02/11:00am 24.6 19.0 -2.9 16 12.0 ESE 17 28 9 15 1018.7 1017.7 0.0
02/10:30am 23.7 17.7 -2.8 17 11.5 ESE 19 30 10 16 1019.0 1018.0 0.0
02/10:00am 22.9 16.5 -1.9 19 10.9 ESE 22 35 12 19 1019.2 1018.2 0.0
02/09:30am 21.8 15.8 -1.5 21 10.2 ESE 20 28 11 15 1019.3 1018.3 0.0
02/09:00am 20.9 14.5 -1.6 22 9.8 ESE 22 32 12 17 1019.5 1018.6 -
02/08:30am 20.1 13.8 -1.1 24 9.3 ESE 22 32 12 17 1019.5 1018.6 0.2
02/08:00am 19.0 12.3 -1.4 25 8.7 ESE 24 33 13 18 1019.2 1018.2 0.0
02/07:30am 18.3 12.6 -1.0 27 8.3 SE 19 28 10 15 1018.9 1017.9 0.0
02/07:00am 17.3 13.2 -0.4 30 7.6 SE 11 15 6 8 1018.7 1017.7 0.0
02/06:30am 15.9 12.5 -0.3 33 6.9 ESE 7 11 4 6 1018.2 1017.2 0.0
02/06:00am 16.0 11.9 -0.2 33 6.9 SE 11 17 6 9 1017.5 1016.6 0.0
02/05:30am 13.2 10.2 0.6 42 5.4 SE 6 11 3 6 1016.7 1015.8 0.0
02/05:00am 13.6 10.6 0.9 42 5.4 SSE 6 9 3 5 1016.2 1015.3 0.0
02/04:30am 12.9 10.4 1.6 46 4.9 SSE 4 7 2 4 1015.9 1015.0 0.0
02/04:00am 13.5 11.8 1.8 45 5.1 CALM 0 0 0 0 1015.8 1014.9 0.0
02/03:30am 14.9 13.2 1.8 41 5.8 CALM 0 0 0 0 1015.8 1014.9 0.0
02/03:00am 14.6 12.8 1.5 41 5.7 CALM 0 0 0 0 1015.9 1015.0 0.0
02/02:30am 15.2 13.4 1.4 39 6.1 CALM 0 0 0 0 1015.9 1015.0 0.0
02/02:00am 16.8 15.0 1.3 35 6.9 CALM 0 0 0 0 1016.0 1015.1 0.0
02/01:30am 18.0 15.0 1.1 32 7.6 ESE 6 6 3 3 1016.1 1015.2 0.0
02/01:00am 17.9 14.6 2.2 35 7.2 N 9 13 5 7 1016.0 1015.1 0.0
02/12:30am 20.8 17.8 1.1 27 9.0 ESE 6 9 3 5 1015.8 1014.9 0.0
02/12:00am 21.1 17.7 1.9 28 9.0 S 9 15 5 8 1016.0 1015.1 0.0
 
Date/Time
WST
Temp
°C
App
Temp
°C
Dew
Point
Rel
Hum
%
Delta-T
°C
Wind Press
QNH
hPa
Press
MSL
hPa
Rain
since 9 am
mm
Dir
 
Spd
km/h
Gust
km/h
Spd
kts
Gust
kts
01/11:30pm 18.9 16.0 2.7 34 7.6 S 7 11 4 6 1016.2 1015.3 0.0
01/11:00pm 19.6 16.9 2.5 32 8.0 SSE 6 9 3 5 1015.9 1015.0 0.0
01/10:30pm 20.4 18.1 2.7 31 8.4 ESE 4 7 2 4 1015.8 1014.9 0.0
01/10:00pm 21.0 18.1 2.8 30 8.6 SE 7 9 4 5 1015.7 1014.8 0.0
01/09:30pm 21.4 18.5 2.6 29 8.9 SE 7 11 4 6 1015.7 1014.8 0.0
01/09:00pm 22.0 19.1 2.7 28 9.2 SE 7 9 4 5 1015.6 1014.7 0.0
01/08:30pm 21.3 19.4 2.6 29 8.9 SE 2 4 1 2 1015.5 1014.6 0.0
01/08:00pm 22.3 19.9 2.4 27 9.5 SSE 4 6 2 3 1015.3 1014.4 0.0
01/07:30pm 23.0 20.2 1.9 25 10.0 S 6 7 3 4 1014.9 1014.0 0.0
01/07:00pm 24.2 21.3 2.4 24 10.5 SW 7 9 4 5 1014.4 1013.4 0.0
01/06:30pm 25.2 22.1 1.3 21 11.4 SW 7 7 4 4 1014.2 1013.2 0.0
01/06:00pm 26.9 24.0 1.3 19 12.3 WSW 6 6 3 3 1013.7 1012.7 0.0
01/05:30pm 28.9 26.2 0.6 16 13.7 W 4 7 2 4 1013.5 1012.5 0.0
01/05:00pm 29.8 26.7 0.4 15 14.2 WNW 6 7 3 4 1013.2 1012.2 0.0
01/04:30pm 30.1 26.9 0.6 15 14.4 WSW 7 15 4 8 1013.1 1012.1 0.0
01/04:00pm 30.6 27.3 0.1 14 14.8 N 7 11 4 6 1012.9 1011.9 0.0
01/03:30pm 30.4 26.7 -0.1 14 14.7 SW 9 13 5 7 1013.0 1012.0 0.0
01/03:00pm 30.6 27.4 1.0 15 14.6 S 7 15 4 8 1013.0 1012.0 0.0
01/02:30pm 30.1 26.9 0.6 15 14.4 S 7 13 4 7 1013.2 1012.2 0.0
01/02:00pm 30.4 27.0 1.8 16 14.2 WSW 9 17 5 9 1013.5 1012.5 0.0
01/01:30pm 29.4 25.6 1.8 17 13.7 WSW 11 19 6 10 1013.8 1012.8 0.0
01/01:00pm 29.3 26.0 2.5 18 13.4 SSE 9 17 5 9 1014.2 1013.2 0.0
01/12:30pm 28.6 25.0 2.7 19 12.9 ESE 11 24 6 13 1014.7 1013.8 0.0
01/12:00pm 28.4 24.0 2.6 19 12.8 S 15 26 8 14 1015.3 1014.4 0.0
01/11:30am 28.2 23.9 3.1 20 12.6 S 15 22 8 12 1015.7 1014.8 0.0
01/11:00am 26.9 22.1 2.7 21 11.9 SSE 17 24 9 13 1016.3 1015.4 0.0
01/10:30am 26.0 20.9 3.3 23 11.3 SSE 19 30 10 16 1016.7 1015.8 0.0
01/10:00am 25.2 20.1 3.2 24 10.8 SSE 19 30 10 16 1016.9 1016.0 0.0
01/09:30am 24.3 19.0 3.0 25 10.4 SSE 20 28 11 15 1017.0 1016.1 0.0
01/09:00am 23.5 17.1 3.4 27 9.8 S 26 33 14 18 1017.0 1016.1 0.0
01/08:30am 22.6 17.0 3.7 29 9.2 S 22 30 12 16 1016.9 1016.0 0.0
01/08:00am 21.7 16.2 3.9 31 8.7 S 22 28 12 15 1016.7 1015.8 0.0
01/07:30am 21.1 15.6 3.8 32 8.4 S 22 33 12 18 1016.6 1016.0 0.0
01/07:00am 20.3 16.5 3.9 34 7.9 S 13 22 7 12 1016.1 1015.5 0.0
01/06:30am 19.8 15.3 4.3 36 7.5 S 17 24 9 13 1015.8 1015.2 0.0
01/06:00am 17.4 14.1 4.7 43 6.1 SSW 11 17 6 9 1015.4 1014.8 0.0
01/05:30am 18.0 15.9 5.9 45 6.0 SSW 6 7 3 4 1015.0 1014.4 0.0
01/05:00am 18.6 16.6 6.4 45 6.1 S 6 9 3 5 1014.6 1013.9 0.0
01/04:30am 17.6 15.5 6.5 48 5.5 S 7 9 4 5 1014.3 1013.6 0.0
01/04:00am 18.0 16.0 6.2 46 5.9 S 6 9 3 5 1014.0 1013.3 0.0
01/03:30am 19.9 17.0 6.6 42 6.7 SW 11 17 6 9 1013.7 1013.0 0.0
01/03:00am 18.2 17.0 6.4 46 5.9 SSE 2 6 1 3 1013.6 1012.9 0.0
01/02:30am 19.5 18.0 6.6 43 6.5 S 4 9 2 5 1013.8 1013.1 0.0
01/02:00am 20.5 18.4 6.5 40 7.1 WSW 7 11 4 6 1013.9 1013.2 0.0
01/01:30am 21.3 19.3 6.4 38 7.6 WSW 6 13 3 7 1013.9 1013.2 0.0
01/01:00am 21.9 19.0 6.6 37 7.9 W 11 17 6 9 1014.2 1013.5 0.0
01/12:30am 21.4 19.3 5.7 36 7.9 WSW 6 11 3 6 1014.6 1013.9 0.0
01/12:00am 21.9 19.6 5.8 35 8.1 WSW 7 11 4 6 1014.8 1014.2 0.0
 
Date/Time
WST
Temp
°C
App
Temp
°C
Dew
Point
Rel
Hum
%
Delta-T
°C
Wind Press
QNH
hPa
Press
MSL
hPa
Rain
since 9 am
mm
Dir
 
Spd
km/h
Gust
km/h
Spd
kts
Gust
kts
31/11:30pm 22.6 19.9 5.5 33 8.6 W 9 15 5 8 1014.8 1014.2 0.0
31/11:00pm 23.2 20.1 5.6 32 8.9 WNW 11 20 6 11 1014.7 1014.1 0.0
31/10:30pm 22.2 19.8 5.2 33 8.5 NW 7 11 4 6 1014.8 1014.2 0.0
31/10:00pm 23.2 20.4 3.2 27 9.7 NNW 7 11 4 6 1014.8 1014.2 0.0
31/09:30pm 22.4 19.4 2.0 26 9.6 NNW 7 13 4 7 1014.7 1014.1 0.0
31/09:00pm 22.9 19.5 1.9 25 9.9 SSW 9 9 5 5 1014.6 1013.9 0.0
31/08:30pm 23.5 20.1 1.8 24 10.3 SW 9 11 5 6 1014.6 1013.9 0.0
31/08:00pm 23.8 20.8 2.0 24 10.4 SSW 7 9 4 5 1014.3 1013.6 0.0
31/07:30pm 24.2 21.2 1.8 23 10.7 SW 7 9 4 5 1014.0 1013.3 0.0

Other Formats:

Comma delimited format used in spreadsheet applications
http://www.bom.gov.au/fwo/IDW60801/IDW60801.95317.axf

JavaScript Object Notation format (JSON) in row-major order
http://www.bom.gov.au/fwo/IDW60801/IDW60801.95317.json